Private Wetterstation Sandau
Wetterdaten: Samstag, 12.01.2013
Datum Zeit Temp. A. Feuchte A. Luftdruck Regen Wind Richtung Richtung Taupunkt Windchill
12.01.2013 00:01 -2,0 C 90 % 1017,5 hPa 0,0 l/m 9,4 km/h (2 Bft) NW 315 -3,4 C -5,5 C
12.01.2013 00:06 -2,1 C 91 % 1017,5 hPa 0,0 l/m 4,0 km/h (1 Bft) NW 315 -3,4 C -2,1 C
12.01.2013 00:11 -2,1 C 91 % 1017,5 hPa 0,0 l/m 2,9 km/h (1 Bft) N-NO 22 -3,4 C -2,1 C
12.01.2013 00:16 -2,1 C 91 % 1017,5 hPa 0,0 l/m 0,0 km/h (0 Bft) NW 315 -3,4 C -2,1 C
12.01.2013 00:21 -2,1 C 91 % 1017,5 hPa 0,0 l/m 5,4 km/h (1 Bft) NW 315 -3,4 C -4,2 C
12.01.2013 00:26 -2,2 C 91 % 1017,5 hPa 0,0 l/m 7,2 km/h (2 Bft) NW 315 -3,5 C -5,0 C
12.01.2013 00:31 -2,2 C 91 % 1017,6 hPa 0,0 l/m 0,0 km/h (0 Bft) NW 315 -3,5 C -2,2 C
12.01.2013 00:36 -2,3 C 91 % 1017,6 hPa 0,0 l/m 3,2 km/h (1 Bft) NW 315 -3,6 C -2,3 C
12.01.2013 00:41 -2,4 C 91 % 1017,6 hPa 0,0 l/m 7,6 km/h (2 Bft) N 360 -3,7 C -5,4 C
12.01.2013 00:46 -2,4 C 90 % 1017,6 hPa 0,0 l/m 4,7 km/h (1 Bft) N-NW 337 -3,8 C -4,2 C
12.01.2013 00:51 -2,4 C 90 % 1017,8 hPa 0,0 l/m 3,6 km/h (1 Bft) W 270 -3,8 C -2,4 C
12.01.2013 00:56 -2,4 C 90 % 1017,6 hPa 0,0 l/m 4,0 km/h (1 Bft) NW 315 -3,8 C -2,4 C
12.01.2013 01:01 -2,4 C 90 % 1017,6 hPa 0,0 l/m 4,7 km/h (1 Bft) W-NW 292 -3,8 C -4,2 C
12.01.2013 01:06 -2,4 C 90 % 1017,8 hPa 0,0 l/m 2,9 km/h (1 Bft) NW 315 -3,8 C -2,4 C
12.01.2013 01:11 -2,4 C 91 % 1017,8 hPa 0,0 l/m 6,1 km/h (2 Bft) N 360 -3,7 C -4,8 C
12.01.2013 01:16 -2,2 C 91 % 1017,7 hPa 0,0 l/m 2,5 km/h (1 Bft) N-NW 337 -3,5 C -2,2 C
12.01.2013 01:21 -2,2 C 91 % 1017,8 hPa 0,0 l/m 0,0 km/h (0 Bft) N-NW 337 -3,5 C -2,2 C
12.01.2013 01:26 -2,1 C 91 % 1017,7 hPa 0,0 l/m 6,1 km/h (2 Bft) NW 315 -3,4 C -4,5 C
12.01.2013 01:31 -2,1 C 91 % 1017,7 hPa 0,0 l/m 5,8 km/h (2 Bft) W-NW 292 -3,4 C -4,4 C
12.01.2013 01:36 -2,1 C 91 % 1017,8 hPa 0,0 l/m 9,0 km/h (2 Bft) NW 315 -3,4 C -5,5 C
12.01.2013 01:41 -2,1 C 91 % 1017,8 hPa 0,0 l/m 6,8 km/h (2 Bft) NW 315 -3,4 C -4,8 C
12.01.2013 01:46 -2,1 C 91 % 1017,9 hPa 0,0 l/m 4,7 km/h (1 Bft) W-NW 292 -3,4 C -3,8 C
12.01.2013 01:51 -2,1 C 91 % 1017,9 hPa 0,0 l/m 3,6 km/h (1 Bft) W 270 -3,4 C -2,1 C
12.01.2013 01:56 -2,1 C 91 % 1017,9 hPa 0,0 l/m 3,2 km/h (1 Bft) W 270 -3,4 C -2,1 C
12.01.2013 02:01 -2,0 C 91 % 1018,1 hPa 0,0 l/m 4,7 km/h (1 Bft) W-NW 292 -3,3 C -3,7 C
12.01.2013 02:06 -2,1 C 91 % 1017,9 hPa 0,0 l/m 5,0 km/h (1 Bft) NW 315 -3,4 C -4,0 C
12.01.2013 02:11 -2,1 C 91 % 1017,8 hPa 0,0 l/m 10,1 km/h (2 Bft) NW 315 -3,4 C -5,9 C
12.01.2013 02:16 -2,1 C 91 % 1017,8 hPa 0,0 l/m 6,1 km/h (2 Bft) NW 315 -3,4 C -4,5 C
12.01.2013 02:21 -2,1 C 91 % 1017,9 hPa 0,0 l/m 4,7 km/h (1 Bft) W-NW 292 -3,4 C -3,8 C
12.01.2013 02:26 -2,2 C 91 % 1017,9 hPa 0,0 l/m 7,6 km/h (2 Bft) W-NW 292 -3,5 C -5,2 C
12.01.2013 02:31 -2,2 C 91 % 1017,9 hPa 0,0 l/m 11,2 km/h (2 Bft) NW 315 -3,5 C -6,3 C
12.01.2013 02:36 -2,4 C 91 % 1017,9 hPa 0,0 l/m 6,5 km/h (2 Bft) NW 315 -3,7 C -5,0 C
12.01.2013 02:41 -2,4 C 91 % 1018,0 hPa 0,0 l/m 2,2 km/h (1 Bft) W-NW 292 -3,7 C -2,4 C
12.01.2013 02:46 -2,4 C 91 % 1017,9 hPa 0,0 l/m 3,2 km/h (1 Bft) W-NW 292 -3,7 C -2,4 C
12.01.2013 02:51 -2,5 C 91 % 1017,8 hPa 0,0 l/m 6,1 km/h (2 Bft) N-NW 337 -3,8 C -4,9 C
12.01.2013 02:56 -2,6 C 91 % 1017,9 hPa 0,0 l/m 8,3 km/h (2 Bft) W 270 -3,9 C -5,9 C
12.01.2013 03:01 -2,6 C 91 % 1017,9 hPa 0,0 l/m 10,1 km/h (2 Bft) W-NW 292 -3,9 C -6,4 C
12.01.2013 03:06 -2,7 C 91 % 1017,9 hPa 0,0 l/m 10,1 km/h (2 Bft) W-NW 292 -4,0 C -6,6 C
12.01.2013 03:11 -2,7 C 91 % 1018,0 hPa 0,0 l/m 8,6 km/h (2 Bft) W 270 -4,0 C -6,1 C
12.01.2013 03:16 -2,8 C 91 % 1017,9 hPa 0,0 l/m 6,1 km/h (2 Bft) NW 315 -4,1 C -5,3 C
12.01.2013 03:21 -2,9 C 91 % 1017,8 hPa 0,0 l/m 5,8 km/h (2 Bft) NW 315 -4,2 C -5,3 C
12.01.2013 03:26 -2,9 C 91 % 1017,8 hPa 0,0 l/m 5,8 km/h (2 Bft) N-NW 337 -4,2 C -5,3 C
12.01.2013 03:31 -3,1 C 91 % 1017,9 hPa 0,0 l/m 1,4 km/h (1 Bft) NW 315 -4,4 C -3,1 C
12.01.2013 03:36 -3,1 C 91 % 1017,9 hPa 0,0 l/m 5,4 km/h (1 Bft) NW 315 -4,4 C -5,3 C
12.01.2013 03:41 -3,1 C 91 % 1017,9 hPa 0,0 l/m 5,0 km/h (1 Bft) W-NW 292 -4,4 C -5,1 C
12.01.2013 03:46 -3,1 C 91 % 1017,9 hPa 0,0 l/m 5,0 km/h (1 Bft) NW 315 -4,4 C -5,1 C
12.01.2013 03:51 -3,1 C 91 % 1018,0 hPa 0,0 l/m 4,7 km/h (1 Bft) N-NW 337 -4,4 C -4,9 C
12.01.2013 03:56 -3,2 C 91 % 1017,9 hPa 0,0 l/m 4,7 km/h (1 Bft) NW 315 -4,5 C -5,1 C
12.01.2013 04:01 -3,2 C 91 % 1017,8 hPa 0,0 l/m 4,7 km/h (1 Bft) N-NW 337 -4,5 C -5,1 C
12.01.2013 04:06 -3,2 C 91 % 1017,9 hPa 0,0 l/m 3,6 km/h (1 Bft) W-NW 292 -4,5 C -3,2 C
12.01.2013 04:11 -3,2 C 91 % 1017,9 hPa 0,0 l/m 1,8 km/h (1 Bft) W-NW 292 -4,5 C -3,2 C
12.01.2013 04:16 -3,2 C 91 % 1017,8 hPa 0,0 l/m 5,8 km/h (2 Bft) W-NW 292 -4,5 C -5,6 C
12.01.2013 04:21 -3,3 C 91 % 1017,9 hPa 0,0 l/m 6,1 km/h (2 Bft) W-NW 292 -4,6 C -5,9 C
12.01.2013 04:26 -3,3 C 91 % 1018,0 hPa 0,0 l/m 7,2 km/h (2 Bft) NW 315 -4,6 C -6,3 C
12.01.2013 04:31 -3,4 C 91 % 1018,0 hPa 0,0 l/m 6,1 km/h (2 Bft) N-NW 337 -4,7 C -6,0 C
12.01.2013 04:36 -3,4 C 91 % 1017,7 hPa 0,0 l/m 0,0 km/h (0 Bft) W-NW 292 -4,7 C -3,4 C
12.01.2013 04:41 -3,4 C 91 % 1017,7 hPa 0,0 l/m 5,8 km/h (2 Bft) N 360 -4,7 C -5,8 C
12.01.2013 04:46 -3,5 C 91 % 1017,7 hPa 0,0 l/m 2,9 km/h (1 Bft) N-NW 337 -4,8 C -3,5 C
12.01.2013 04:51 -3,5 C 91 % 1017,8 hPa 0,0 l/m 2,5 km/h (1 Bft) W 270 -4,8 C -3,5 C
12.01.2013 04:56 -3,5 C 91 % 1017,8 hPa 0,0 l/m 4,0 km/h (1 Bft) N-NW 337 -4,8 C -3,5 C
12.01.2013 05:01 -3,6 C 91 % 1017,8 hPa 0,0 l/m 10,8 km/h (2 Bft) N-NW 337 -4,8 C -7,8 C
12.01.2013 05:06 -3,6 C 91 % 1017,9 hPa 0,0 l/m 5,4 km/h (1 Bft) W-NW 292 -4,8 C -5,9 C
12.01.2013 05:11 -3,6 C 91 % 1017,8 hPa 0,0 l/m 8,3 km/h (2 Bft) NW 315 -4,8 C -7,1 C
12.01.2013 05:16 -3,6 C 91 % 1017,8 hPa 0,0 l/m 7,6 km/h (2 Bft) NW 315 -4,8 C -6,8 C
12.01.2013 05:21 -3,6 C 91 % 1017,8 hPa 0,0 l/m 6,1 km/h (2 Bft) W-NW 292 -4,8 C -6,2 C
12.01.2013 05:26 -3,6 C 91 % 1017,8 hPa 0,0 l/m 5,0 km/h (1 Bft) W-NW 292 -4,8 C -5,7 C
12.01.2013 05:31 -3,6 C 91 % 1017,9 hPa 0,0 l/m 4,7 km/h (1 Bft) NW 315 -4,8 C -5,5 C
12.01.2013 05:36 -3,7 C 91 % 1017,9 hPa 0,0 l/m 6,5 km/h (2 Bft) NW 315 -4,9 C -6,5 C
12.01.2013 05:41 -3,7 C 91 % 1017,9 hPa 0,0 l/m 7,6 km/h (2 Bft) NW 315 -4,9 C -6,9 C
12.01.2013 05:46 -3,7 C 91 % 1017,8 hPa 0,0 l/m 7,2 km/h (2 Bft) W-NW 292 -4,9 C -6,8 C
12.01.2013 05:51 -3,7 C 91 % 1017,9 hPa 0,0 l/m 2,5 km/h (1 Bft) NW 315 -4,9 C -3,7 C
12.01.2013 05:56 -3,7 C 91 % 1017,9 hPa 0,0 l/m 4,0 km/h (1 Bft) W-NW 292 -4,9 C -3,7 C
12.01.2013 06:01 -3,7 C 91 % 1017,9 hPa 0,0 l/m 5,0 km/h (1 Bft) NW 315 -4,9 C -5,8 C
12.01.2013 06:06 -3,7 C 91 % 1017,7 hPa 0,0 l/m 3,6 km/h (1 Bft) W-NW 292 -4,9 C -3,7 C
12.01.2013 06:11 -3,7 C 91 % 1017,7 hPa 0,0 l/m 5,0 km/h (1 Bft) W-NW 292 -4,9 C -5,8 C
12.01.2013 06:16 -3,7 C 91 % 1017,8 hPa 0,0 l/m 6,8 km/h (2 Bft) NW 315 -4,9 C -6,6 C
12.01.2013 06:21 -3,7 C 91 % 1017,8 hPa 0,0 l/m 6,5 km/h (2 Bft) NW 315 -4,9 C -6,5 C
12.01.2013 06:26 -3,8 C 91 % 1017,8 hPa 0,0 l/m 4,3 km/h (1 Bft) NW 315 -5,0 C -3,8 C
12.01.2013 06:31 -3,8 C 92 % 1017,9 hPa 0,0 l/m 2,5 km/h (1 Bft) NW 315 -4,9 C -3,8 C
12.01.2013 06:36 -3,8 C 92 % 1018,0 hPa 0,0 l/m 1,4 km/h (1 Bft) NW 315 -4,9 C -3,8 C
12.01.2013 06:41 -3,8 C 92 % 1018,1 hPa 0,0 l/m 0,0 km/h (0 Bft) W-NW 292 -4,9 C -3,8 C
12.01.2013 06:46 -3,8 C 92 % 1018,0 hPa 0,0 l/m 0,0 km/h (0 Bft) W-NW 292 -4,9 C -3,8 C
12.01.2013 06:51 -3,8 C 92 % 1018,1 hPa 0,0 l/m 4,0 km/h (1 Bft) W-NW 292 -4,9 C -3,8 C
12.01.2013 06:56 -3,8 C 92 % 1018,2 hPa 0,0 l/m 3,6 km/h (1 Bft) W-NW 292 -4,9 C -3,8 C
12.01.2013 07:01 -3,7 C 92 % 1018,3 hPa 0,0 l/m 3,6 km/h (1 Bft) W 270 -4,8 C -3,7 C
12.01.2013 07:06 -3,7 C 92 % 1018,4 hPa 0,0 l/m 8,3 km/h (2 Bft) NW 315 -4,8 C -7,2 C
12.01.2013 07:11 -3,7 C 92 % 1018,4 hPa 0,0 l/m 8,6 km/h (2 Bft) NW 315 -4,8 C -7,3 C
12.01.2013 07:16 -3,6 C 92 % 1018,4 hPa 0,0 l/m 6,8 km/h (2 Bft) NW 315 -4,7 C -6,5 C
12.01.2013 07:21 -3,6 C 92 % 1018,6 hPa 0,0 l/m 4,0 km/h (1 Bft) W 270 -4,7 C -3,6 C
12.01.2013 07:26 -3,6 C 92 % 1018,5 hPa 0,0 l/m 4,7 km/h (1 Bft) W-NW 292 -4,7 C -5,5 C
12.01.2013 07:31 -3,5 C 92 % 1018,4 hPa 0,0 l/m 8,3 km/h (2 Bft) NW 315 -4,6 C -7,0 C
12.01.2013 07:36 -3,5 C 92 % 1018,5 hPa 0,0 l/m 6,1 km/h (2 Bft) W-NW 292 -4,6 C -6,1 C
12.01.2013 07:41 -3,4 C 92 % 1018,5 hPa 0,0 l/m 6,1 km/h (2 Bft) NW 315 -4,5 C -6,0 C
12.01.2013 07:46 -3,4 C 92 % 1018,5 hPa 0,0 l/m 6,8 km/h (2 Bft) N-NW 337 -4,5 C -6,3 C
12.01.2013 07:51 -3,3 C 92 % 1018,6 hPa 0,0 l/m 5,4 km/h (1 Bft) N-NW 337 -4,4 C -5,5 C
12.01.2013 07:56 -3,2 C 92 % 1018,5 hPa 0,0 l/m 6,5 km/h (2 Bft) NW 315 -4,3 C -5,9 C
12.01.2013 08:01 -3,2 C 92 % 1018,6 hPa 0,0 l/m 2,2 km/h (1 Bft) NW 315 -4,3 C -3,2 C
12.01.2013 08:06 -3,1 C 92 % 1018,6 hPa 0,0 l/m 8,3 km/h (2 Bft) NW 315 -4,2 C -6,5 C
12.01.2013 08:11 -3,1 C 92 % 1018,7 hPa 0,0 l/m 7,6 km/h (2 Bft) N-NW 337 -4,2 C -6,2 C
12.01.2013 08:16 -3,1 C 92 % 1018,9 hPa 0,0 l/m 0,0 km/h (0 Bft) N-NO 22 -4,2 C -3,1 C
12.01.2013 08:21 -3,1 C 92 % 1018,7 hPa 0,0 l/m 11,9 km/h (2 Bft) N 360 -4,2 C -7,5 C
12.01.2013 08:26 -3,1 C 92 % 1018,5 hPa 0,0 l/m 4,0 km/h (1 Bft) N-NW 337 -4,2 C -3,1 C
12.01.2013 08:31 -3,0 C 92 % 1018,6 hPa 0,0 l/m 2,2 km/h (1 Bft) NW 315 -4,1 C -3,0 C
12.01.2013 08:36 -3,0 C 92 % 1018,8 hPa 0,0 l/m 3,2 km/h (1 Bft) NW 315 -4,1 C -3,0 C
12.01.2013 08:41 -2,9 C 92 % 1018,8 hPa 0,0 l/m 7,6 km/h (2 Bft) NW 315 -4,0 C -6,0 C
12.01.2013 08:46 -2,9 C 92 % 1018,8 hPa 0,0 l/m 6,5 km/h (2 Bft) NW 315 -4,0 C -5,6 C
12.01.2013 08:51 -2,9 C 92 % 1018,9 hPa 0,0 l/m 6,1 km/h (2 Bft) W-NW 292 -4,0 C -5,4 C
12.01.2013 08:56 -2,9 C 92 % 1018,9 hPa 0,0 l/m 6,5 km/h (2 Bft) NW 315 -4,0 C -5,6 C
12.01.2013 09:01 -2,8 C 92 % 1018,9 hPa 0,0 l/m 3,6 km/h (1 Bft) NW 315 -3,9 C -2,8 C
12.01.2013 09:06 -2,7 C 92 % 1019,1 hPa 0,0 l/m 4,3 km/h (1 Bft) NW 315 -3,8 C -2,7 C
12.01.2013 09:11 -2,7 C 92 % 1018,9 hPa 0,0 l/m 7,2 km/h (2 Bft) W-NW 292 -3,8 C -5,6 C
12.01.2013 09:16 -2,7 C 92 % 1018,8 hPa 0,0 l/m 2,9 km/h (1 Bft) N-NW 337 -3,8 C -2,7 C
12.01.2013 09:21 -2,6 C 92 % 1018,9 hPa 0,0 l/m 4,7 km/h (1 Bft) N-NW 337 -3,7 C -4,4 C
12.01.2013 09:26 -2,6 C 92 % 1018,9 hPa 0,0 l/m 3,6 km/h (1 Bft) N 360 -3,7 C -2,6 C
12.01.2013 09:31 -2,5 C 91 % 1019,0 hPa 0,0 l/m 4,3 km/h (1 Bft) N-NO 22 -3,8 C -2,5 C
12.01.2013 09:36 -2,5 C 91 % 1019,0 hPa 0,0 l/m 4,7 km/h (1 Bft) N 360 -3,8 C -4,3 C
12.01.2013 09:41 -2,4 C 91 % 1019,2 hPa 0,0 l/m 6,5 km/h (2 Bft) W-NW 292 -3,7 C -5,0 C
12.01.2013 09:46 -2,3 C 91 % 1019,0 hPa 0,0 l/m 2,5 km/h (1 Bft) W-NW 292 -3,6 C -2,3 C
12.01.2013 09:51 -2,2 C 91 % 1018,9 hPa 0,0 l/m 1,8 km/h (1 Bft) N-NW 337 -3,5 C -2,2 C
12.01.2013 09:56 -2,2 C 91 % 1019,1 hPa 0,0 l/m 4,3 km/h (1 Bft) W-NW 292 -3,5 C -2,2 C
12.01.2013 10:01 -2,2 C 91 % 1019,0 hPa 0,0 l/m 5,0 km/h (1 Bft) N-NW 337 -3,5 C -4,1 C
12.01.2013 10:06 -2,1 C 91 % 1019,2 hPa 0,0 l/m 6,1 km/h (2 Bft) W-NW 292 -3,4 C -4,5 C
12.01.2013 10:11 -2,1 C 91 % 1019,2 hPa 0,0 l/m 6,1 km/h (2 Bft) W 270 -3,4 C -4,5 C
12.01.2013 10:16 -2,1 C 91 % 1019,2 hPa 0,0 l/m 8,3 km/h (2 Bft) NW 315 -3,4 C -5,3 C
12.01.2013 10:21 -1,9 C 91 % 1019,3 hPa 0,0 l/m 5,0 km/h (1 Bft) NW 315 -3,2 C -3,7 C
12.01.2013 10:26 -2,0 C 91 % 1019,3 hPa 0,0 l/m 3,6 km/h (1 Bft) NW 315 -3,3 C -2,0 C
12.01.2013 10:31 -2,1 C 91 % 1019,4 hPa 0,0 l/m 4,7 km/h (1 Bft) W 270 -3,4 C -3,8 C
12.01.2013 10:36 -2,0 C 91 % 1019,4 hPa 0,0 l/m 13,3 km/h (3 Bft) NW 315 -3,3 C -6,5 C
12.01.2013 10:41 -2,1 C 91 % 1019,5 hPa 0,0 l/m 9,4 km/h (2 Bft) W-NW 292 -3,4 C -5,6 C
12.01.2013 10:46 -1,9 C 90 % 1019,6 hPa 0,0 l/m 4,0 km/h (1 Bft) W 270 -3,3 C -1,9 C
12.01.2013 10:51 -1,9 C 90 % 1019,5 hPa 0,0 l/m 5,8 km/h (2 Bft) W 270 -3,3 C -4,1 C
12.01.2013 10:56 -1,8 C 90 % 1019,5 hPa 0,0 l/m 4,3 km/h (1 Bft) N-NW 337 -3,2 C -1,8 C
12.01.2013 11:01 -1,8 C 90 % 1019,6 hPa 0,0 l/m 6,5 km/h (2 Bft) W 270 -3,2 C -4,3 C
12.01.2013 11:06 -1,7 C 90 % 1019,6 hPa 0,0 l/m 5,0 km/h (1 Bft) W-NW 292 -3,1 C -3,5 C
12.01.2013 11:11 -1,6 C 90 % 1019,6 hPa 0,0 l/m 5,4 km/h (1 Bft) N 360 -3,0 C -3,6 C
12.01.2013 11:16 -1,5 C 90 % 1019,6 hPa 0,0 l/m 11,5 km/h (2 Bft) W-NW 292 -2,9 C -5,5 C
12.01.2013 11:21 -1,5 C 90 % 1019,6 hPa 0,0 l/m 6,1 km/h (2 Bft) NW 315 -2,9 C -3,8 C
12.01.2013 11:26 -1,4 C 89 % 1019,6 hPa 0,0 l/m 4,7 km/h (1 Bft) W 270 -3,0 C -3,0 C
12.01.2013 11:31 -1,4 C 89 % 1019,7 hPa 0,0 l/m 5,8 km/h (2 Bft) W-NW 292 -3,0 C -3,5 C
12.01.2013 11:36 -1,3 C 89 % 1019,7 hPa 0,0 l/m 8,3 km/h (2 Bft) W 270 -2,9 C -4,4 C
12.01.2013 11:41 -1,2 C 90 % 1019,7 hPa 0,0 l/m 6,8 km/h (2 Bft) W-NW 292 -2,6 C -3,7 C
12.01.2013 11:46 -1,2 C 89 % 1019,5 hPa 0,0 l/m 4,0 km/h (1 Bft) W 270 -2,8 C -1,2 C
12.01.2013 11:51 -1,2 C 89 % 1019,4 hPa 0,0 l/m 2,5 km/h (1 Bft) NW 315 -2,8 C -1,2 C
12.01.2013 11:56 -1,2 C 89 % 1019,4 hPa 0,0 l/m 4,7 km/h (1 Bft) NW 315 -2,8 C -2,8 C
12.01.2013 12:01 -1,2 C 89 % 1019,5 hPa 0,0 l/m 6,1 km/h (2 Bft) NW 315 -2,8 C -3,4 C
12.01.2013 12:06 -1,1 C 89 % 1019,4 hPa 0,0 l/m 5,4 km/h (1 Bft) NW 315 -2,7 C -3,0 C
12.01.2013 12:11 -1,1 C 89 % 1019,5 hPa 0,0 l/m 5,8 km/h (2 Bft) NW 315 -2,7 C -3,2 C
12.01.2013 12:16 -0,9 C 89 % 1019,5 hPa 0,0 l/m 4,3 km/h (1 Bft) NW 315 -2,5 C -0,9 C
12.01.2013 12:21 -0,9 C 89 % 1019,4 hPa 0,0 l/m 6,1 km/h (2 Bft) W-NW 292 -2,5 C -3,1 C
12.01.2013 12:26 -0,8 C 89 % 1019,5 hPa 0,0 l/m 4,0 km/h (1 Bft) N-NW 337 -2,4 C -0,8 C
12.01.2013 12:31 -0,7 C 89 % 1019,5 hPa 0,0 l/m 0,0 km/h (0 Bft) N-NW 337 -2,3 C -0,7 C
12.01.2013 12:36 -0,7 C 89 % 1019,5 hPa 0,0 l/m 3,2 km/h (1 Bft) N 360 -2,3 C -0,7 C
12.01.2013 12:41 -0,7 C 88 % 1019,5 hPa 0,0 l/m 10,1 km/h (2 Bft) N-NW 337 -2,4 C -4,2 C
12.01.2013 12:46 -0,6 C 88 % 1019,4 hPa 0,0 l/m 6,5 km/h (2 Bft) N 360 -2,3 C -2,9 C
12.01.2013 12:51 -0,5 C 88 % 1019,5 hPa 0,0 l/m 2,5 km/h (1 Bft) N-NO 22 -2,2 C -0,5 C
12.01.2013 12:56 -0,4 C 87 % 1019,4 hPa 0,0 l/m 6,5 km/h (2 Bft) N 360 -2,3 C -2,7 C
12.01.2013 13:01 -0,2 C 87 % 1019,4 hPa 0,0 l/m 4,3 km/h (1 Bft) N 360 -2,1 C -0,2 C
12.01.2013 13:06 -0,2 C 87 % 1019,4 hPa 0,0 l/m 4,3 km/h (1 Bft) N-NW 337 -2,1 C -0,2 C
12.01.2013 13:11 -0,4 C 86 % 1019,4 hPa 0,0 l/m 5,0 km/h (1 Bft) NO 45 -2,4 C -2,0 C
12.01.2013 13:16 -0,2 C 86 % 1019,3 hPa 0,0 l/m 5,8 km/h (2 Bft) N-NO 22 -2,3 C -2,2 C
12.01.2013 13:21 -0,4 C 87 % 1019,4 hPa 0,0 l/m 11,9 km/h (2 Bft) N-NO 22 -2,3 C -4,3 C
12.01.2013 13:26 -0,4 C 87 % 1019,4 hPa 0,0 l/m 2,2 km/h (1 Bft) N-NO 22 -2,3 C -0,4 C
12.01.2013 13:31 -0,4 C 87 % 1019,5 hPa 0,0 l/m 5,0 km/h (1 Bft) N-NO 22 -2,3 C -2,0 C
12.01.2013 13:36 -0,3 C 87 % 1019,3 hPa 0,0 l/m 4,0 km/h (1 Bft) N-NO 22 -2,2 C -0,3 C
12.01.2013 13:41 -0,4 C 87 % 1019,5 hPa 0,0 l/m 6,5 km/h (2 Bft) N 360 -2,3 C -2,7 C
12.01.2013 13:46 -0,2 C 87 % 1019,3 hPa 0,0 l/m 6,1 km/h (2 Bft) N-NO 22 -2,1 C -2,3 C
12.01.2013 13:51 -0,3 C 87 % 1019,4 hPa 0,0 l/m 4,0 km/h (1 Bft) N 360 -2,2 C -0,3 C
12.01.2013 13:56 -0,2 C 87 % 1019,3 hPa 0,0 l/m 5,8 km/h (2 Bft) N 360 -2,1 C -2,2 C
12.01.2013 14:01 -0,4 C 87 % 1019,4 hPa 0,0 l/m 3,6 km/h (1 Bft) N-NO 22 -2,3 C -0,4 C
12.01.2013 14:06 -0,2 C 87 % 1019,4 hPa 0,0 l/m 7,2 km/h (2 Bft) N-NO 22 -2,1 C -2,7 C
12.01.2013 14:11 -0,2 C 87 % 1019,5 hPa 0,0 l/m 2,9 km/h (1 Bft) N 360 -2,1 C -0,2 C
12.01.2013 14:16 -0,2 C 87 % 1019,6 hPa 0,0 l/m 5,0 km/h (1 Bft) W-NW 292 -2,1 C -1,8 C
12.01.2013 14:21 -0,2 C 87 % 1019,6 hPa 0,0 l/m 3,6 km/h (1 Bft) NW 315 -2,1 C -0,2 C
12.01.2013 14:26 -0,1 C 87 % 1019,7 hPa 0,0 l/m 9,4 km/h (2 Bft) NW 315 -2,0 C -3,3 C
12.01.2013 14:31 -0,1 C 87 % 1019,7 hPa 0,0 l/m 3,6 km/h (1 Bft) NW 315 -2,0 C -0,1 C
12.01.2013 14:36 -0,1 C 87 % 1019,7 hPa 0,0 l/m 7,2 km/h (2 Bft) W-NW 292 -2,0 C -2,6 C
12.01.2013 14:41 -0,2 C 87 % 1019,9 hPa 0,0 l/m 3,2 km/h (1 Bft) W-NW 292 -2,1 C -0,2 C
12.01.2013 14:46 -0,2 C 87 % 1019,6 hPa 0,0 l/m 3,6 km/h (1 Bft) N-NW 337 -2,1 C -0,2 C
12.01.2013 14:51 -0,2 C 87 % 1019,7 hPa 0,0 l/m 4,0 km/h (1 Bft) NO 45 -2,1 C -0,2 C
12.01.2013 14:56 -0,2 C 87 % 1019,7 hPa 0,0 l/m 4,3 km/h (1 Bft) N 360 -2,1 C -0,2 C
12.01.2013 15:01 -0,2 C 87 % 1019,7 hPa 0,0 l/m 0,0 km/h (0 Bft) NW 315 -2,1 C -0,2 C
12.01.2013 15:06 -0,2 C 87 % 1019,8 hPa 0,0 l/m 6,1 km/h (2 Bft) N-NO 22 -2,1 C -2,3 C
12.01.2013 15:11 -0,4 C 87 % 1019,9 hPa 0,0 l/m 9,0 km/h (2 Bft) N 360 -2,3 C -3,5 C
12.01.2013 15:16 -0,4 C 87 % 1020,0 hPa 0,0 l/m 9,7 km/h (2 Bft) N-NO 22 -2,3 C -3,7 C
12.01.2013 15:21 -0,4 C 87 % 1020,0 hPa 0,0 l/m 12,2 km/h (2 Bft) N-NO 22 -2,3 C -4,3 C
12.01.2013 15:26 -0,4 C 87 % 1020,1 hPa 0,0 l/m 7,9 km/h (2 Bft) N-NO 22 -2,3 C -3,2 C
12.01.2013 15:31 -0,4 C 87 % 1020,2 hPa 0,0 l/m 8,6 km/h (2 Bft) N 360 -2,3 C -3,4 C
12.01.2013 15:36 -0,4 C 87 % 1020,3 hPa 0,0 l/m 4,7 km/h (1 Bft) N-NO 22 -2,3 C -1,9 C
12.01.2013 15:41 -0,4 C 87 % 1020,2 hPa 0,0 l/m 5,0 km/h (1 Bft) N 360 -2,3 C -2,0 C
12.01.2013 15:46 -0,4 C 88 % 1020,1 hPa 0,0 l/m 9,7 km/h (2 Bft) N 360 -2,1 C -3,7 C
12.01.2013 15:51 -0,4 C 88 % 1020,2 hPa 0,0 l/m 7,9 km/h (2 Bft) N-NO 22 -2,1 C -3,2 C
12.01.2013 15:56 -0,4 C 88 % 1020,1 hPa 0,0 l/m 9,4 km/h (2 Bft) N 360 -2,1 C -3,6 C
12.01.2013 16:01 -0,4 C 88 % 1020,2 hPa 0,0 l/m 7,6 km/h (2 Bft) N-NO 22 -2,1 C -3,1 C
12.01.2013 16:06 -0,2 C 88 % 1020,1 hPa 0,0 l/m 9,4 km/h (2 Bft) N-NO 22 -1,9 C -3,4 C
12.01.2013 16:11 -0,2 C 88 % 1020,0 hPa 0,0 l/m 6,8 km/h (2 Bft) N-NO 22 -1,9 C -2,6 C
12.01.2013 16:16 -0,2 C 88 % 1020,0 hPa 0,0 l/m 6,1 km/h (2 Bft) N-NO 22 -1,9 C -2,3 C
12.01.2013 16:21 -0,2 C 88 % 1020,0 hPa 0,0 l/m 4,3 km/h (1 Bft) N-NO 22 -1,9 C -0,2 C
12.01.2013 16:26 -0,2 C 87 % 1020,1 hPa 0,0 l/m 10,8 km/h (2 Bft) N-NO 22 -2,1 C -3,8 C
12.01.2013 16:31 -0,2 C 87 % 1020,1 hPa 0,0 l/m 4,3 km/h (1 Bft) N 360 -2,1 C -0,2 C
12.01.2013 16:36 -0,4 C 87 % 1020,2 hPa 0,0 l/m 8,3 km/h (2 Bft) N-NO 22 -2,3 C -3,3 C
12.01.2013 16:41 -0,4 C 87 % 1020,3 hPa 0,0 l/m 10,8 km/h (2 Bft) N-NO 22 -2,3 C -4,0 C
12.01.2013 16:46 -0,4 C 87 % 1020,2 hPa 0,0 l/m 5,0 km/h (1 Bft) N-NO 22 -2,3 C -2,0 C
12.01.2013 16:51 -0,4 C 87 % 1020,1 hPa 0,0 l/m 8,6 km/h (2 Bft) N 360 -2,3 C -3,4 C
12.01.2013 16:56 -0,4 C 87 % 1020,3 hPa 0,0 l/m 4,7 km/h (1 Bft) N-NW 337 -2,3 C -1,9 C
12.01.2013 17:01 -0,4 C 88 % 1020,3 hPa 0,0 l/m 8,6 km/h (2 Bft) N 360 -2,1 C -3,4 C
12.01.2013 17:06 -0,4 C 88 % 1020,3 hPa 0,0 l/m 4,7 km/h (1 Bft) NO 45 -2,1 C -1,9 C
12.01.2013 17:11 -0,4 C 88 % 1020,4 hPa 0,0 l/m 2,2 km/h (1 Bft) N-NW 337 -2,1 C -0,4 C
12.01.2013 17:16 -0,4 C 88 % 1020,3 hPa 0,0 l/m 3,2 km/h (1 Bft) N-NO 22 -2,1 C -0,4 C
12.01.2013 17:21 -0,4 C 88 % 1020,4 hPa 0,0 l/m 6,5 km/h (2 Bft) N-NO 22 -2,1 C -2,7 C
12.01.2013 17:26 -0,4 C 88 % 1020,4 hPa 0,0 l/m 3,2 km/h (1 Bft) N-NO 22 -2,1 C -0,4 C
12.01.2013 17:31 -0,4 C 88 % 1020,5 hPa 0,0 l/m 2,9 km/h (1 Bft) N-NO 22 -2,1 C -0,4 C
12.01.2013 17:36 -0,4 C 88 % 1020,5 hPa 0,0 l/m 5,0 km/h (1 Bft) NO 45 -2,1 C -2,0 C
12.01.2013 17:41 -0,4 C 88 % 1020,3 hPa 0,0 l/m 4,3 km/h (1 Bft) N-NO 22 -2,1 C -0,4 C
12.01.2013 17:46 -0,4 C 89 % 1020,4 hPa 0,0 l/m 4,0 km/h (1 Bft) N 360 -2,0 C -0,4 C
12.01.2013 17:51 -0,4 C 89 % 1020,3 hPa 0,0 l/m 4,7 km/h (1 Bft) N-NO 22 -2,0 C -1,9 C
12.01.2013 17:56 -0,4 C 89 % 1020,4 hPa 0,0 l/m 6,5 km/h (2 Bft) N 360 -2,0 C -2,7 C
12.01.2013 18:01 -0,4 C 89 % 1020,3 hPa 0,0 l/m 4,3 km/h (1 Bft) N-NO 22 -2,0 C -0,4 C
12.01.2013 18:06 -0,4 C 89 % 1020,4 hPa 0,0 l/m 9,7 km/h (2 Bft) N 360 -2,0 C -3,7 C
12.01.2013 18:11 -0,4 C 89 % 1020,3 hPa 0,0 l/m 7,9 km/h (2 Bft) N-NO 22 -2,0 C -3,2 C
12.01.2013 18:16 -0,4 C 89 % 1020,4 hPa 0,0 l/m 4,0 km/h (1 Bft) N-NW 337 -2,0 C -0,4 C
12.01.2013 18:21 -0,3 C 89 % 1020,4 hPa 0,0 l/m 5,0 km/h (1 Bft) N 360 -1,9 C -1,9 C
12.01.2013 18:26 -0,2 C 89 % 1020,5 hPa 0,0 l/m 5,8 km/h (2 Bft) N 360 -1,8 C -2,2 C
12.01.2013 18:31 -0,2 C 89 % 1020,4 hPa 0,0 l/m 4,7 km/h (1 Bft) N 360 -1,8 C -1,7 C
12.01.2013 18:36 -0,2 C 89 % 1020,4 hPa 0,0 l/m 4,0 km/h (1 Bft) N-NO 22 -1,8 C -0,2 C
12.01.2013 18:41 -0,2 C 89 % 1020,5 hPa 0,0 l/m 4,3 km/h (1 Bft) N-NO 22 -1,8 C -0,2 C
12.01.2013 18:46 -0,2 C 89 % 1020,4 hPa 0,0 l/m 3,6 km/h (1 Bft) N 360 -1,8 C -0,2 C
12.01.2013 18:51 -0,2 C 89 % 1020,5 hPa 0,0 l/m 3,2 km/h (1 Bft) N-NW 337 -1,8 C -0,2 C
12.01.2013 18:56 -0,2 C 89 % 1020,6 hPa 0,0 l/m 5,8 km/h (2 Bft) N-NO 22 -1,8 C -2,2 C
12.01.2013 19:01 -0,3 C 89 % 1020,5 hPa 0,0 l/m 7,2 km/h (2 Bft) N-NO 22 -1,9 C -2,8 C
12.01.2013 19:06 -0,4 C 89 % 1020,6 hPa 0,0 l/m 10,1 km/h (2 Bft) N-NO 22 -2,0 C -3,8 C
12.01.2013 19:11 -0,4 C 89 % 1020,7 hPa 0,0 l/m 7,2 km/h (2 Bft) N-NO 22 -2,0 C -2,9 C
12.01.2013 19:16 -0,4 C 89 % 1020,7 hPa 0,0 l/m 8,3 km/h (2 Bft) N 360 -2,0 C -3,3 C
12.01.2013 19:21 -0,4 C 89 % 1020,7 hPa 0,0 l/m 4,0 km/h (1 Bft) N-NO 22 -2,0 C -0,4 C
12.01.2013 19:26 -0,4 C 89 % 1020,7 hPa 0,0 l/m 5,4 km/h (1 Bft) N-NO 22 -2,0 C -2,2 C
12.01.2013 19:31 -0,4 C 89 % 1020,7 hPa 0,0 l/m 7,9 km/h (2 Bft) N-NO 22 -2,0 C -3,2 C
12.01.2013 19:36 -0,4 C 89 % 1020,7 hPa 0,0 l/m 4,7 km/h (1 Bft) N 360 -2,0 C -1,9 C
12.01.2013 19:41 -0,4 C 89 % 1020,7 hPa 0,0 l/m 6,1 km/h (2 Bft) N 360 -2,0 C -2,5 C
12.01.2013 19:46 -0,4 C 89 % 1020,7 hPa 0,0 l/m 12,2 km/h (2 Bft) N 360 -2,0 C -4,3 C
12.01.2013 19:51 -0,5 C 89 % 1020,8 hPa 0,0 l/m 5,0 km/h (1 Bft) N-NO 22 -2,1 C -2,2 C
12.01.2013 19:56 -0,4 C 89 % 1020,8 hPa 0,0 l/m 6,5 km/h (2 Bft) N 360 -2,0 C -2,7 C
12.01.2013 20:01 -0,5 C 90 % 1020,8 hPa 0,0 l/m 6,5 km/h (2 Bft) N-NO 22 -1,9 C -2,8 C
12.01.2013 20:06 -0,5 C 90 % 1020,9 hPa 0,0 l/m 4,3 km/h (1 Bft) N-NO 22 -1,9 C -0,5 C
12.01.2013 20:11 -0,5 C 90 % 1020,9 hPa 0,0 l/m 0,0 km/h (0 Bft) N-NO 22 -1,9 C -0,5 C
12.01.2013 20:16 -0,5 C 90 % 1020,7 hPa 0,0 l/m 4,7 km/h (1 Bft) N-NO 22 -1,9 C -2,0 C
12.01.2013 20:21 -0,5 C 90 % 1020,9 hPa 0,0 l/m 5,0 km/h (1 Bft) N-NO 22 -1,9 C -2,2 C
12.01.2013 20:26 -0,5 C 90 % 1021,0 hPa 0,0 l/m 4,0 km/h (1 Bft) N 360 -1,9 C -0,5 C
12.01.2013 20:31 -0,5 C 90 % 1021,0 hPa 0,0 l/m 6,1 km/h (2 Bft) N-NO 22 -1,9 C -2,6 C
12.01.2013 20:36 -0,5 C 90 % 1021,0 hPa 0,0 l/m 4,3 km/h (1 Bft) N-NO 22 -1,9 C -0,5 C
12.01.2013 20:41 -0,5 C 90 % 1021,0 hPa 0,0 l/m 6,5 km/h (2 Bft) N 360 -1,9 C -2,8 C
12.01.2013 20:46 -0,5 C 90 % 1021,0 hPa 0,0 l/m 5,0 km/h (1 Bft) N 360 -1,9 C -2,2 C
12.01.2013 20:51 -0,5 C 90 % 1020,9 hPa 0,0 l/m 3,6 km/h (1 Bft) N 360 -1,9 C -0,5 C
12.01.2013 20:56 -0,5 C 90 % 1020,9 hPa 0,0 l/m 2,2 km/h (1 Bft) O-NO 67 -1,9 C -0,5 C
12.01.2013 21:01 -0,5 C 90 % 1020,9 hPa 0,0 l/m 3,2 km/h (1 Bft) N-NO 22 -1,9 C -0,5 C
12.01.2013 21:06 -0,5 C 90 % 1020,9 hPa 0,0 l/m 2,9 km/h (1 Bft) N-NO 22 -1,9 C -0,5 C
12.01.2013 21:11 -0,6 C 90 % 1021,0 hPa 0,0 l/m 2,5 km/h (1 Bft) N 360 -2,0 C -0,6 C
12.01.2013 21:16 -0,6 C 90 % 1021,0 hPa 0,0 l/m 2,5 km/h (1 Bft) N 360 -2,0 C -0,6 C
12.01.2013 21:21 -0,6 C 90 % 1021,1 hPa 0,0 l/m 4,0 km/h (1 Bft) N 360 -2,0 C -0,6 C
12.01.2013 21:26 -0,6 C 90 % 1021,0 hPa 0,0 l/m 2,2 km/h (1 Bft) NO 45 -2,0 C -0,6 C
12.01.2013 21:31 -0,7 C 90 % 1021,0 hPa 0,0 l/m 0,0 km/h (0 Bft) N-NO 22 -2,1 C -0,7 C
12.01.2013 21:36 -0,7 C 90 % 1021,0 hPa 0,0 l/m 0,0 km/h (0 Bft) N-NO 22 -2,1 C -0,7 C
12.01.2013 21:41 -0,7 C 90 % 1021,0 hPa 0,0 l/m 0,0 km/h (0 Bft) N-NO 22 -2,1 C -0,7 C
12.01.2013 21:46 -0,7 C 90 % 1021,0 hPa 0,0 l/m 1,4 km/h (1 Bft) NO 45 -2,1 C -0,7 C
12.01.2013 21:51 -0,7 C 90 % 1021,1 hPa 0,0 l/m 4,0 km/h (1 Bft) N-NO 22 -2,1 C -0,7 C
12.01.2013 21:56 -0,8 C 90 % 1021,1 hPa 0,0 l/m 2,2 km/h (1 Bft) N-NO 22 -2,2 C -0,8 C
12.01.2013 22:01 -0,8 C 90 % 1021,1 hPa 0,0 l/m 0,0 km/h (0 Bft) NO 45 -2,2 C -0,8 C
12.01.2013 22:06 -0,8 C 90 % 1021,0 hPa 0,0 l/m 0,0 km/h (0 Bft) N-NO 22 -2,2 C -0,8 C
12.01.2013 22:11 -0,8 C 90 % 1021,1 hPa 0,0 l/m 0,0 km/h (0 Bft) N-NO 22 -2,2 C -0,8 C
12.01.2013 22:16 -0,8 C 90 % 1021,0 hPa 0,0 l/m 1,4 km/h (1 Bft) N-NO 22 -2,2 C -0,8 C
12.01.2013 22:21 -0,8 C 90 % 1021,0 hPa 0,0 l/m 0,0 km/h (0 Bft) N-NO 22 -2,2 C -0,8 C
12.01.2013 22:26 -0,9 C 91 % 1021,1 hPa 0,0 l/m 0,0 km/h (0 Bft) N-NO 22 -2,2 C -0,9 C
12.01.2013 22:31 -0,9 C 91 % 1021,1 hPa 0,0 l/m 1,4 km/h (1 Bft) NO 45 -2,2 C -0,9 C
12.01.2013 22:36 -0,9 C 91 % 1021,1 hPa 0,0 l/m 0,0 km/h (0 Bft) N 360 -2,2 C -0,9 C
12.01.2013 22:41 -0,9 C 91 % 1021,1 hPa 0,0 l/m 1,4 km/h (1 Bft) N-NO 22 -2,2 C -0,9 C
12.01.2013 22:46 -0,9 C 91 % 1021,1 hPa 0,0 l/m 2,5 km/h (1 Bft) N 360 -2,2 C -0,9 C
12.01.2013 22:51 -0,9 C 91 % 1021,1 hPa 0,0 l/m 5,8 km/h (2 Bft) N 360 -2,2 C -3,0 C
12.01.2013 22:56 -0,9 C 91 % 1021,2 hPa 0,0 l/m 5,8 km/h (2 Bft) N-NO 22 -2,2 C -3,0 C
12.01.2013 23:01 -0,9 C 91 % 1021,3 hPa 0,0 l/m 2,9 km/h (1 Bft) N-NO 22 -2,2 C -0,9 C
12.01.2013 23:06 -0,9 C 91 % 1021,4 hPa 0,0 l/m 4,3 km/h (1 Bft) NO 45 -2,2 C -0,9 C
12.01.2013 23:11 -1,0 C 91 % 1021,4 hPa 0,0 l/m 5,0 km/h (1 Bft) N-NO 22 -2,3 C -2,7 C
12.01.2013 23:16 -0,9 C 91 % 1021,4 hPa 0,0 l/m 5,8 km/h (2 Bft) N 360 -2,2 C -3,0 C
12.01.2013 23:21 -0,9 C 90 % 1021,4 hPa 0,0 l/m 4,7 km/h (1 Bft) N 360 -2,3 C -2,5 C
12.01.2013 23:26 -0,9 C 90 % 1021,3 hPa 0,0 l/m 4,7 km/h (1 Bft) N 360 -2,3 C -2,5 C
12.01.2013 23:31 -1,0 C 90 % 1021,3 hPa 0,0 l/m 4,0 km/h (1 Bft) N 360 -2,4 C -1,0 C
12.01.2013 23:36 -1,0 C 90 % 1021,2 hPa 0,0 l/m 1,4 km/h (1 Bft) N 360 -2,4 C -1,0 C
12.01.2013 23:41 -1,0 C 90 % 1021,3 hPa 0,0 l/m 8,3 km/h (2 Bft) N 360 -2,4 C -4,0 C
12.01.2013 23:46 -1,0 C 90 % 1021,2 hPa 0,0 l/m 4,7 km/h (1 Bft) N 360 -2,4 C -2,6 C
12.01.2013 23:51 -1,0 C 90 % 1021,1 hPa 0,0 l/m 2,2 km/h (1 Bft) N 360 -2,4 C -1,0 C
12.01.2013 23:56 -1,0 C 90 % 1021,1 hPa 0,0 l/m 7,2 km/h (2 Bft) O-NO 67 -2,4 C -3,6 C
_ Min-Zeit 06:26 13:11 00:01 - 00:16 - - 06:26 05:01
Minimum _ -3,8 C 86 % 1017,5 hPa - 0,0 km/h (0 Bft) - - -5,0 C -7,8 C
_ Max-Zeit 14:26 06:31 23:06 00:01 10:36 - - 18:26 14:31
Maximum _ -0,1 C 92 % 1021,4 hPa 0,0 l/m 13,3 km/h
NW (3 Bft)
- - -1,8 C -0,1 C
Durchschnitt _ -1,6 C 90 % 1019,4 hPa #0,0 l/m 5,1 km/h (1 Bft) NW - -3,1 C -3,1 C
(c) by David Heller